Sweeney Granite Mountains, California Weather observations

Data are for 10 minute period ending at time listed.
 Day   Time   Solar   Ave.   Ave.  Ave.  Vector  Max.   Baro.   Total    
  of    of     Rad.   Air    Rel.  Wind   Wind   Wind  Press.  Precip.   
Year   Day            Temp.  Hum.  Speed  Dir.   Gust                    
2016   (PST)  Kw/m2    F      %     mph   deg.    mph    mb.     in.     
-------------------------------------------------------------------------
 121   16:10   100.00  99999.0   99999  99999.0   99999   99999.0   99999.0   99999.00 
 121   16:20   100.00  99999.0   99999  99999.0   99999   99999.0   99999.0   99999.00 
 121   16:30   100.00  99999.0   99999  99999.0   99999   99999.0   99999.0   99999.00 
 121   16:40   100.00  99999.0   99999  99999.0   99999   99999.0   99999.0   99999.00 
 121   16:50   100.00  99999.0   99999  99999.0   99999   99999.0   99999.0   99999.00 
 121   17:00   100.00  99999.0   99999  99999.0   99999   99999.0   99999.0   99999.00 
 121   17:10   100.00  99999.0   99999  99999.0   99999   99999.0   99999.0   99999.00 
 121   17:20   100.00  99999.0   99999  99999.0   99999   99999.0   99999.0   99999.00 
 121   17:30   100.00  99999.0   99999  99999.0   99999   99999.0   99999.0   99999.00 
 121   17:40   100.00  99999.0   99999  99999.0   99999   99999.0   99999.0   99999.00 
 121   17:50   100.00  99999.0   99999  99999.0   99999   99999.0   99999.0   99999.00 
 121   18:00   100.00  99999.0   99999  99999.0   99999   99999.0   99999.0   99999.00 
 121   18:10   100.00  99999.0   99999  99999.0   99999   99999.0   99999.0   99999.00 
 121   18:20   100.00  99999.0   99999  99999.0   99999   99999.0   99999.0   99999.00 
 121   18:30   100.00  99999.0   99999  99999.0   99999   99999.0   99999.0   99999.00 
 121   18:40   100.00  99999.0   99999  99999.0   99999   99999.0   99999.0   99999.00 
 121   18:50   100.00  99999.0   99999  99999.0   99999   99999.0   99999.0   99999.00 
 121   19:00   100.00  99999.0   99999  99999.0   99999   99999.0   99999.0   99999.00 
 121   19:10   100.00  99999.0   99999  99999.0   99999   99999.0   99999.0   99999.00 
 121   19:20   100.00  99999.0   99999  99999.0   99999   99999.0   99999.0   99999.00 
 121   19:30   100.00  99999.0   99999  99999.0   99999   99999.0   99999.0   99999.00 
 121   19:40   100.00  99999.0   99999  99999.0   99999   99999.0   99999.0   99999.00 
 121   19:50   100.00  99999.0   99999  99999.0   99999   99999.0   99999.0   99999.00 
 121   20:00   100.00  99999.0   99999  99999.0   99999   99999.0   99999.0   99999.00 
 121   20:10   0.00   50.3    64    8.3   291    18.2   863.0    0.00 
 121   20:20   0.00   50.3    64    7.5   296    17.4   863.1    0.00 
 121   20:30   0.00   50.4    64   10.0   286    22.0   863.0    0.00 
 121   20:40   0.00   50.4    64   12.3   292    26.8   863.0    0.00 
 121   20:50   0.00   50.4    64    9.3   298    18.4   863.1    0.00 
 121   21:00   0.00   50.7    64    8.1   339    18.6   863.1    0.00 
 121   21:10   0.00   50.9    63    8.2   304    18.9   863.0    0.00 
 121   21:20   0.00   51.0    63    8.8   316    19.4   862.9    0.00 
 121   21:30   0.00   51.0    64    9.9   293    18.8   863.0    0.00 
 121   21:40   0.00   51.1    63    8.2   340    21.5   863.0    0.00 
 121   21:50   0.00   51.1    64    8.2   328    17.3   863.0    0.00 
 121   22:00   0.00   51.2    64    7.2   311    17.2   863.0    0.00 
 121   22:10   0.00   51.2    64    7.9   330    20.2   863.0    0.00 
 121   22:20   0.00   51.2    65    8.9     2    20.5   863.0    0.00 
 121   22:30   0.00   51.0    66   13.0   314    24.8   862.9    0.00 
 121   22:40   0.00   50.9    66   12.9   316    25.1   862.9    0.00 
 121   22:50   0.00   50.9    66   12.0   317    21.1   863.1    0.00 
 121   23:00   0.00   50.9    66   13.1   322    25.4   863.2    0.00 
 121   23:10   0.00   50.6    68   11.0   325    20.0   863.2    0.00 
 121   23:20   0.00   50.2    70   13.5   309    24.5   863.3    0.00 
 121   23:30   0.00   49.9    71   15.9   312    26.7   863.3    0.00 
 121   23:40   0.00   49.8    72   14.4   318    27.2   863.3    0.00 
 121   23:50   0.00   49.6    72   11.7   315    22.3   863.4    0.00 
 122    0:00   0.00   49.4    73   13.5   308    19.8   863.3    0.00 
 122    0:10   0.00   49.4    72   13.8   313    21.0   863.3    0.00 
 122    0:20   0.00   49.5    72   14.6   319    23.5   863.2    0.00 
 122    0:30   0.00   49.5    73   15.7   317    23.7   863.3    0.00 
 122    0:40   0.00   49.3    74   15.9   312    24.1   863.3    0.00 
 122    0:50   0.00   49.3    74   15.5   314    26.7   863.2    0.00 
 122    1:00   0.00   49.3    74   15.2   313    24.1   863.2    0.00 
 122    1:10   0.00   49.3    74   15.5   306    26.2   863.2    0.00 
 122    1:20   0.00   49.5    72   12.1   311    18.2   863.2    0.00 
 122    1:30   0.00   49.5    72   15.9   302    24.5   863.1    0.00 
 122    1:40   0.00   49.4    72   14.6   310    24.7   863.1    0.00 
 122    1:50   0.00   49.3    72   16.3   306    24.6   863.2    0.00 
 122    2:00   0.00   49.4    71   15.3   311    24.1   863.1    0.00 
 122    2:10   0.00   49.7    70   14.6   311    20.8   863.1    0.00 
 122    2:20   0.00   49.8    68   13.1   309    19.4   863.3    0.00 
 122    2:30   0.00   50.1    66   12.0   308    17.8   863.3    0.00 
 122    2:40   0.00   50.1    67   12.6   308    18.0   863.3    0.00 
 122    2:50   0.00   50.1    66   12.1   315    21.0   863.3    0.00 
 122    3:00   0.00   50.1    66   11.9   316    18.4   863.4    0.00 
 122    3:10   0.00   50.5    64    9.5   315    17.7   863.3    0.00 
 122    3:20   0.00   51.0    60    7.9   309    14.6   863.3    0.00 
 122    3:30   0.00   51.1    60    8.5   305    14.8   863.3    0.00 
 122    3:40   0.00   50.4    64    9.7   307    14.3   863.4    0.00 
 122    3:50   0.00   50.3    64   10.3   306    17.6   863.5    0.00 
 122    4:00   0.00   50.1    64    9.6   302    14.0   863.6    0.00 
 122    4:10   0.00   50.1    64    9.7   304    13.4   863.6    0.00 
 122    4:20   0.00   50.2    63   11.4   304    15.6   863.6    0.00 
 122    4:30   0.00   50.1    63   11.0   303    17.6   863.7    0.00 
 122    4:40   0.00   50.4    63   10.6   315    15.3   863.8    0.00 
 122    4:50   0.00   49.9    64   11.1   302    14.6   863.8    0.00 
 122    5:00   0.00   49.8    64   10.2   306    13.4   863.9    0.00 
 122    5:10   0.01   50.5    61    9.8   312    15.7   864.0    0.00 
 122    5:20   0.02   50.6    61   12.3   304    17.9   864.1    0.00 
 122    5:30   0.03   50.7    62   12.0   311    16.9   864.3    0.00 
 122    5:40   0.03   50.6    63   10.6   310    14.2   864.5    0.00 
 122    5:50   0.04   50.8    62   11.9   306    16.3   864.6    0.00 
 122    6:00   0.07   51.1    61    9.8   312    14.7   864.9    0.00 
 122    6:10   0.10   51.9    60   11.1   312    16.7   865.0    0.00 
 122    6:20   0.14   51.9    59   11.6   313    16.1   865.1    0.00 
 122    6:30   0.22   53.3    56   11.3   309    16.8   865.2    0.00 
 122    6:40   0.19   53.2    56   10.9   311    15.1   865.3    0.00 
 122    6:50   0.27   54.4    52   10.0   308    14.9   865.4    0.00 
 122    7:00   0.34   56.0    49    7.8   310    12.5   865.6    0.00 
 122    7:10   0.38   55.9    49   10.7   316    16.3   865.8    0.00 
 122    7:20   0.43   54.8    53   11.7   321    16.5   865.9    0.00 
 122    7:30   0.47   55.3    51   10.0   318    16.0   866.1    0.00 
 122    7:40   0.50   56.3    49    8.4   317    13.2   866.2    0.00 
 122    7:50   0.54   56.9    48    9.2   323    13.7   866.3    0.00 
 122    8:00   0.57   56.6    49    9.2   317    15.0   866.3    0.00 
 122    8:10   0.60   57.8    46    6.2   316    11.0   866.4    0.00 
 122    8:20   0.64   58.7    44    5.3   306     9.9   866.5    0.00 
 122    8:30   0.67   59.1    42    5.0   348    11.1   866.6    0.00 
 122    8:40   0.70   59.8    40    2.4    28     7.6   866.6    0.00 
 122    8:50   0.73   60.1    40    5.5     7    13.1   866.7    0.00 
 122    9:00   0.76   60.6    38    3.7    50     8.4   866.8    0.00 
 122    9:10   0.79   60.6    38    3.8    38     8.9   866.8    0.00 
 122    9:20   0.82   61.3    39    4.0    62     8.6   866.9    0.00 
 122    9:30   0.84   62.0    38    3.8   348     9.0   867.0    0.00 
 122    9:40   0.86   62.0    38    4.7    32     9.1   867.1    0.00 
 122    9:50   0.89   62.0    38    3.9   114     9.0   867.2    0.00 
 122   10:00   0.91   62.9    37    3.7    70     8.8   867.2    0.00 
 122   10:10   0.94   63.2    36    4.8   105    10.3   867.2    0.00 
 122   10:20   1.00   63.7    35    5.5    77    14.0   867.3    0.00 
 122   10:30   1.07   64.3    34    6.0   148    16.4   867.3    0.00 
 122   10:40   1.11   64.6    34    3.8   153     9.8   867.3    0.00 
 122   10:50   1.21   65.8    32    6.4   118    11.7   867.3    0.00 
 122   11:00   0.82   63.8    34    6.3    13    13.4   867.3    0.00 
 122   11:10   1.17   67.1    31    3.2   205     6.8   867.3    0.00 
 122   11:20   1.20   65.7    31    5.3    42    14.2   867.4    0.00 
 122   11:30   0.67   64.3    31    3.1    64     8.9   867.4    0.00 
 122   11:40   0.43   63.6    32    7.8   110    16.1   867.4    0.00 
 122   11:50   0.49   63.8    30    7.9   138    18.2   867.3    0.00 
 122   12:00   0.29   62.5    31    4.6    18    10.8   867.3    0.00 
 122   12:10   0.23   62.9    31    5.1    66    16.7   867.3    0.00 
 122   12:20   0.23   62.5    31    7.0   129    12.6   867.3    0.00 
 122   12:30   0.27   63.0    31    8.1   100    14.5   867.4    0.00 
 122   12:40   0.30   63.0    31    5.8   119    14.6   867.4    0.00 
 122   12:50   0.32   63.1    31    4.5   103     9.9   867.3    0.00 
 122   13:00   0.37   63.6    30    7.2   115    15.1   867.3    0.00 
 122   13:10   0.65   64.7    29    3.9   136     9.2   867.4    0.00 
 122   13:20   0.35   64.6    30    7.8   105    11.9   867.5    0.00 
 122   13:30   0.29   63.4    30    6.4   139    11.2   867.5    0.00 
 122   13:40   0.35   64.2    30    3.9   144     9.8   867.5    0.00 
 122   13:50   0.93   65.6    28    5.6   139    12.4   867.5    0.00 
 122   14:00   0.99   67.0    26    6.6   100    13.5   867.4    0.00 
 122   14:10   0.28   65.2    28    6.6   124    15.6   867.4    0.00 
 122   14:20   0.18   63.8    29    4.5    80    10.4   867.4    0.00 
 122   14:30   0.11   63.7    28    2.6   157     6.4   867.4    0.00 
 122   14:40   0.11   63.4    28    5.0   129     8.6   867.3    0.00 
 122   14:50   0.20   63.5    29    3.3   216     6.8   867.3    0.00 
 122   15:00   0.32   64.1    28    2.2   247     5.0   867.3    0.00 
 122   15:10   0.42   65.2    28    2.7   250     5.0   867.3    0.00 
 122   15:20   0.59   67.2    26    2.4   167     6.0   867.3    0.00 
 122   15:30   0.71   67.5    28    3.8   200     9.9   867.3    0.00 
 122   15:40   0.30   66.0    29    2.5   291     8.5   867.5    0.00 
 122   15:50   0.34   65.8    28    4.9   119    15.8   867.6    0.00 
 122   16:00   0.25   65.2    26    7.0   105    13.6   867.6    0.00 

Return to Sweeney Granite Mountains graphs page.


Western Regional Climate Center,wrcc@dri.edu